F\v Gure Gogoa — EAJC — position and weather

sailwx.info

Track history (hours):
 
Tides and Currents Weather Stations Pressure Air Temp Water Temp Dewpoint Dewpoint Depression Visibility Wind Speed Wind Dir Waves Ship Positions

F\v Gure Gogoa

Last reported at 2015-May-28 14:22 UTC. Time now 2015-May-29 22:28 UTC.
Position N 43°18' W 002°12'.

Length 37 m.

Type: Fishing. MMSI: 224128930.

Date/timePositionNaut miles runAvg speedWind from/ knotsBaromVisibWave heightAir tempDewpointWater temp
2015-May-28 14:22N 43°18' W 002°12'120 4.8
2015-May-27 13:09N 43°45' W 004°54'14 9.0
2015-May-27 11:33N 43°41' W 005°13'10 9.4
2015-May-27 10:32N 43°39' W 005°26'1010.0
2015-May-27 09:33N 43°35' W 005°38'3 3.2
2015-May-27 08:33N 43°33' W 005°42'0 0.1
2015-May-27 07:33N 43°33' W 005°42'6 6.5
2015-May-27 06:33N 43°36' W 005°33'1110.3
2015-May-27 05:27N 43°39' W 005°18'7 6.1
2015-May-27 04:14N 43°46' W 005°16'6 0.5
2015-May-26 16:15N 43°53' W 005°17'17 3.5
2015-May-26 11:20N 43°42' W 004°58'2 2.3
2015-May-26 10:30N 43°43' W 005°01'5 2.1
2015-May-26 08:17N 43°43' W 005°07'8 7.0
2015-May-26 07:09N 43°38' W 005°16'6 8.2
2015-May-26 06:22N 43°39' W 005°25'5 6.5
2015-May-26 05:33N 43°40' W 005°32'10 9.5
2015-May-26 04:30N 43°43' W 005°45'2 2.0
2015-May-26 03:32N 43°43' W 005°47'5 5.4
2015-May-26 02:33N 43°41' W 005°40'0 0.4
2015-May-26 01:32N 43°41' W 005°39'6 6.2
2015-May-26 00:33N 43°39' W 005°31'14 9.9
2015-May-25 23:10N 43°36' W 005°13'  
Track history (hours):
 
Tides and Currents Weather Stations Pressure Air Temp Water Temp Dewpoint Dewpoint Depression Visibility Wind Speed Wind Dir Waves Ship Positions

F\v Gure Gogoa

Last reported at 2015-May-28 14:22 UTC. Time now 2015-May-29 22:28 UTC.
Position N 43°18' W 002°12'.

Length 37 m.

Type: Fishing. MMSI: 224128930.

Date/timePositionNaut miles runAvg speedWind from/ knotsBaromVisibWave heightAir tempDewpointWater temp
2015-May-28 14:22N 43°18' W 002°12'120 4.8
2015-May-27 13:09N 43°45' W 004°54'14 9.0
2015-May-27 11:33N 43°41' W 005°13'10 9.4
2015-May-27 10:32N 43°39' W 005°26'1010.0
2015-May-27 09:33N 43°35' W 005°38'3 3.2
2015-May-27 08:33N 43°33' W 005°42'0 0.1
2015-May-27 07:33N 43°33' W 005°42'6 6.5
2015-May-27 06:33N 43°36' W 005°33'1110.3
2015-May-27 05:27N 43°39' W 005°18'7 6.1
2015-May-27 04:14N 43°46' W 005°16'6 0.5
2015-May-26 16:15N 43°53' W 005°17'17 3.5
2015-May-26 11:20N 43°42' W 004°58'2 2.3
2015-May-26 10:30N 43°43' W 005°01'5 2.1
2015-May-26 08:17N 43°43' W 005°07'8 7.0
2015-May-26 07:09N 43°38' W 005°16'6 8.2
2015-May-26 06:22N 43°39' W 005°25'5 6.5
2015-May-26 05:33N 43°40' W 005°32'10 9.5
2015-May-26 04:30N 43°43' W 005°45'2 2.0
2015-May-26 03:32N 43°43' W 005°47'5 5.4
2015-May-26 02:33N 43°41' W 005°40'0 0.4
2015-May-26 01:32N 43°41' W 005°39'6 6.2
2015-May-26 00:33N 43°39' W 005°31'14 9.9
2015-May-25 23:10N 43°36' W 005°13'  

Dump ship's entire track history